Time;durP1;ratioP1;P1;durP2;ratioP2;P2;SDS_P1;SDS_P2;PMS_P1;PMS_P2;Temp;Humidity;BMP_temperature;BMP_pressure;BME280_temperature;BME280_humidity;BME280_pressure;Samples;Min_cycle;Max_cycle;Signal;HPM_P1;HPM_P2
2021/10/04 00:01:05;;;;;;;8.68;2.58;;;16.10;92.80;;;;;;5032552;28;20204;-64
2021/10/04 00:03:30;;;;;;;8.15;2.30;;;16.10;92.70;;;;;;5031413;28;20024;-64
2021/10/04 00:05:56;;;;;;;9.18;2.38;;;16.10;92.80;;;;;;5032357;28;20104;-64
2021/10/04 00:08:22;;;;;;;6.13;2.13;;;16.10;92.60;;;;;;5031987;28;20034;-64
2021/10/04 00:10:48;;;;;;;5.50;1.95;;;16.10;92.80;;;;;;5032356;28;20036;-63
2021/10/04 00:13:13;;;;;;;4.93;2.05;;;16.10;92.70;;;;;;5032566;28;20022;-64
2021/10/04 00:15:39;;;;;;;7.85;2.28;;;16.10;92.70;;;;;;5140921;23;20492;-63
2021/10/04 00:18:04;;;;;;;5.85;1.92;;;16.10;92.60;;;;;;5027342;28;20021;-63
2021/10/04 00:20:30;;;;;;;4.30;2.05;;;16.10;92.60;;;;;;5019566;28;20016;-62
2021/10/04 00:22:57;;;;;;;4.28;1.90;;;16.10;92.80;;;;;;5032063;28;20044;-62
2021/10/04 00:25:23;;;;;;;4.97;1.85;;;16.10;92.60;;;;;;5022450;28;20431;-62
2021/10/04 00:27:49;;;;;;;5.10;2.05;;;16.10;92.80;;;;;;5012331;28;20029;-63
2021/10/04 00:30:19;;;;;;;4.20;1.90;;;16.10;92.80;;;;;;5012204;28;20026;-63
2021/10/04 00:32:46;;;;;;;5.45;1.75;;;16.10;92.80;;;;;;5012150;28;20061;-63
2021/10/04 00:35:14;;;;;;;6.15;1.95;;;16.10;92.70;;;;;;5012246;28;20022;-63
2021/10/04 00:37:40;;;;;;;3.97;1.83;;;16.10;92.50;;;;;;5021460;28;20014;-63
2021/10/04 00:40:09;;;;;;;5.30;1.98;;;16.10;92.50;;;;;;5031787;28;20022;-63
2021/10/04 00:42:35;;;;;;;3.70;1.80;;;16.10;92.60;;;;;;5030473;28;20024;-63
2021/10/04 00:45:01;;;;;;;5.88;1.70;;;16.10;92.60;;;;;;5031863;28;20061;-62
2021/10/04 00:47:26;;;;;;;3.72;1.90;;;16.10;92.60;;;;;;5031650;28;20056;-63
2021/10/04 00:49:52;;;;;;;5.45;1.58;;;16.10;92.30;;;;;;5031608;28;20026;-63
2021/10/04 00:52:17;;;;;;;5.30;1.80;;;16.10;92.60;;;;;;5031870;28;20753;-62
2021/10/04 00:54:43;;;;;;;6.15;1.92;;;16.10;92.50;;;;;;5020540;28;20361;-63
2021/10/04 00:57:09;;;;;;;4.22;1.70;;;16.10;92.50;;;;;;5030705;28;20511;-62
2021/10/04 00:59:35;;;;;;;3.88;1.70;;;16.10;92.30;;;;;;5031241;28;20026;-63
2021/10/04 01:02:01;;;;;;;5.88;1.73;;;16.10;92.50;;;;;;5018317;28;20053;-63
2021/10/04 01:04:27;;;;;;;4.07;1.70;;;16.10;92.40;;;;;;5024644;28;20022;-62
2021/10/04 01:06:53;;;;;;;3.85;1.67;;;16.10;92.30;;;;;;5025897;28;20389;-62
2021/10/04 01:09:19;;;;;;;4.47;1.83;;;16.10;92.40;;;;;;5010714;28;20025;-63
2021/10/04 01:11:45;;;;;;;4.15;1.67;;;16.00;92.30;;;;;;5011389;28;20022;-63
2021/10/04 01:14:11;;;;;;;4.80;1.70;;;16.00;92.40;;;;;;5011120;28;20014;-63
2021/10/04 01:16:37;;;;;;;3.65;1.80;;;16.10;92.40;;;;;;5011332;28;20497;-64
2021/10/04 01:19:03;;;;;;;4.40;1.80;;;16.10;92.40;;;;;;5013107;28;20022;-62
2021/10/04 01:21:28;;;;;;;4.78;1.88;;;16.00;92.30;;;;;;5029566;28;20022;-63
2021/10/04 01:23:54;;;;;;;5.68;1.90;;;16.10;92.20;;;;;;5030183;28;20028;-63
2021/10/04 01:26:20;;;;;;;5.00;1.75;;;16.00;92.30;;;;;;5019776;28;20397;-64
2021/10/04 01:28:46;;;;;;;4.90;2.00;;;16.00;92.50;;;;;;5014289;28;20026;-63
2021/10/04 01:31:12;;;;;;;4.90;1.80;;;16.00;92.60;;;;;;5014637;28;20030;-64
2021/10/04 01:33:38;;;;;;;2.55;1.60;;;16.10;92.20;;;;;;5016066;28;20036;-63
2021/10/04 01:36:03;;;;;;;4.22;1.65;;;16.00;92.20;;;;;;5033067;28;20025;-63
2021/10/04 01:38:29;;;;;;;5.78;1.98;;;16.00;92.30;;;;;;5018280;28;20072;-63
2021/10/04 01:40:55;;;;;;;6.07;1.60;;;16.00;92.60;;;;;;5013604;28;20026;-64
2021/10/04 01:43:20;;;;;;;6.63;1.70;;;16.10;92.30;;;;;;5014642;28;20025;-65
2021/10/04 01:45:46;;;;;;;5.25;1.67;;;16.10;92.40;;;;;;5014577;28;20041;-64
2021/10/04 01:48:11;;;;;;;4.78;1.52;;;16.00;92.30;;;;;;5026252;28;20033;-62
2021/10/04 01:50:39;;;;;;;6.28;1.80;;;16.00;92.20;;;;;;5034384;28;20465;-64
2021/10/04 01:53:06;;;;;;;5.93;1.70;;;16.00;92.30;;;;;;5033992;28;20029;-63
2021/10/04 01:55:32;;;;;;;8.27;2.45;;;16.00;92.30;;;;;;5029890;28;20021;-64
2021/10/04 01:57:58;;;;;;;7.38;1.80;;;16.00;92.40;;;;;;5024400;28;20017;-64
2021/10/04 02:00:23;;;;;;;5.43;2.05;;;16.00;92.30;;;;;;5033707;28;20116;-64
2021/10/04 02:02:54;;;;;;;5.93;1.70;;;16.00;92.30;;;;;;5033922;28;20013;-63
2021/10/04 02:05:20;;;;;;;7.10;1.70;;;16.00;92.30;;;;;;5034119;28;20040;-62
2021/10/04 02:07:47;;;;;;;5.75;1.83;;;16.00;92.30;;;;;;5025790;28;20045;-63
2021/10/04 02:10:16;;;;;;;7.68;1.67;;;16.00;92.40;;;;;;5013980;28;20495;-64
2021/10/04 02:12:42;;;;;;;5.15;1.58;;;16.00;92.50;;;;;;5014246;28;20022;-64
2021/10/04 02:15:09;;;;;;;5.47;1.50;;;16.00;92.30;;;;;;5013948;28;20529;-63
2021/10/04 02:17:35;;;;;;;10.35;1.85;;;16.00;92.40;;;;;;5020293;28;20095;-63
2021/10/04 02:20:05;;;;;;;8.20;1.70;;;16.00;92.30;;;;;;5033833;28;20065;-63
2021/10/04 02:22:31;;;;;;;3.70;1.58;;;16.00;92.30;;;;;;5033198;28;20028;-63
2021/10/04 02:24:57;;;;;;;4.68;1.65;;;16.00;92.40;;;;;;5029085;28;20030;-64
2021/10/04 02:27:22;;;;;;;4.57;1.42;;;16.00;92.20;;;;;;5020204;28;20480;-63
2021/10/04 02:29:48;;;;;;;4.03;1.40;;;16.00;92.30;;;;;;5033466;28;20029;-63
2021/10/04 02:32:13;;;;;;;6.53;1.70;;;16.00;92.20;;;;;;5030404;28;20100;-63
2021/10/04 02:34:39;;;;;;;8.35;1.60;;;16.00;92.10;;;;;;5018697;28;20031;-63
2021/10/04 02:37:05;;;;;;;6.45;1.48;;;16.00;92.30;;;;;;5033612;28;20056;-63
2021/10/04 02:39:31;;;;;;;3.90;1.40;;;16.00;92.20;;;;;;5032508;28;20029;-64
2021/10/04 02:41:57;;;;;;;5.10;1.50;;;16.00;92.20;;;;;;5033467;28;20375;-63
2021/10/04 02:44:22;;;;;;;3.42;1.55;;;16.00;92.20;;;;;;5018455;28;20492;-61
2021/10/04 02:46:48;;;;;;;8.68;1.92;;;16.00;92.70;;;;;;5028643;28;20452;-63
2021/10/04 02:49:13;;;;;;;2.45;1.33;;;16.00;92.40;;;;;;5016652;28;20022;-63
2021/10/04 02:51:39;;;;;;;4.97;1.40;;;16.00;92.40;;;;;;5012174;28;20386;-63
2021/10/04 02:54:05;;;;;;;3.90;1.30;;;16.00;92.20;;;;;;5014598;28;20026;-63
2021/10/04 02:56:30;;;;;;;5.00;1.58;;;16.00;92.60;;;;;;5024507;28;20020;-61
2021/10/04 02:58:56;;;;;;;3.67;1.27;;;16.00;92.30;;;;;;5032698;28;20029;-63
2021/10/04 03:01:21;;;;;;;3.55;1.40;;;16.00;92.30;;;;;;5018575;28;20087;-63
2021/10/04 03:03:47;;;;;;;2.78;1.00;;;16.00;92.30;;;;;;5013219;28;20021;-63
2021/10/04 03:06:13;;;;;;;3.30;1.27;;;16.00;92.10;;;;;;5013125;28;20042;-63
2021/10/04 03:08:38;;;;;;;4.97;1.45;;;16.00;92.50;;;;;;5011810;28;20034;-63
2021/10/04 03:11:05;;;;;;;3.78;1.40;;;16.00;92.20;;;;;;5025379;28;20026;-63
2021/10/04 03:13:31;;;;;;;8.32;1.60;;;16.00;92.30;;;;;;5032763;28;20381;-62
2021/10/04 03:15:56;;;;;;;9.18;1.80;;;16.00;92.20;;;;;;5032618;28;20031;-63
2021/10/04 03:18:22;;;;;;;6.22;1.50;;;16.00;92.40;;;;;;5017139;28;20373;-63
2021/10/04 03:20:47;;;;;;;4.80;1.30;;;16.00;92.30;;;;;;5011799;28;20622;-63
2021/10/04 03:23:13;;;;;;;2.42;1.10;;;16.00;92.40;;;;;;5012720;28;20138;-62
2021/10/04 03:25:39;;;;;;;7.43;1.50;;;16.00;92.30;;;;;;5011734;28;20030;-62
2021/10/04 03:28:05;;;;;;;2.90;1.40;;;16.00;92.40;;;;;;5012745;28;20028;-63
2021/10/04 03:30:31;;;;;;;3.88;1.33;;;16.00;92.50;;;;;;5014596;28;20472;-63
2021/10/04 03:32:56;;;;;;;4.97;1.40;;;16.00;92.40;;;;;;5032462;28;20039;-62
2021/10/04 03:35:23;;;;;;;5.03;1.27;;;16.00;92.40;;;;;;5012510;28;20029;-64
2021/10/04 03:37:49;;;;;;;5.13;1.30;;;16.00;92.30;;;;;;5012517;28;20026;-63
2021/10/04 03:40:15;;;;;;;6.45;1.30;;;16.00;92.30;;;;;;5028682;28;20447;-63
2021/10/04 03:42:41;;;;;;;4.78;1.10;;;16.00;92.20;;;;;;5031951;28;20021;-63
2021/10/04 03:45:08;;;;;;;2.30;1.25;;;16.00;92.40;;;;;;5030348;28;20029;-64
2021/10/04 03:47:35;;;;;;;5.75;1.23;;;16.00;92.40;;;;;;5030842;28;20036;-62
2021/10/04 03:50:02;;;;;;;5.53;1.40;;;16.00;92.40;;;;;;5029237;28;20029;-63
2021/10/04 03:52:27;;;;;;;2.78;1.00;;;16.00;92.30;;;;;;5037065;28;20017;-62
2021/10/04 03:54:53;;;;;;;3.42;1.23;;;15.90;92.00;;;;;;5031927;28;20029;-64
2021/10/04 03:57:18;;;;;;;3.05;1.25;;;15.90;92.20;;;;;;5029626;28;20043;-62
2021/10/04 03:59:44;;;;;;;3.05;1.20;;;15.90;92.10;;;;;;5029256;28;20479;-63
2021/10/04 04:02:12;;;;;;;2.28;1.02;;;15.90;92.20;;;;;;5030099;28;20036;-63
2021/10/04 04:04:38;;;;;;;3.65;1.10;;;15.90;92.10;;;;;;5031813;28;20383;-62
2021/10/04 04:07:03;;;;;;;3.65;1.20;;;16.00;92.00;;;;;;5030514;28;20013;-62
2021/10/04 04:09:29;;;;;;;3.42;1.00;;;15.90;92.10;;;;;;5030412;28;20032;-63
2021/10/04 04:11:54;;;;;;;4.28;1.15;;;15.90;92.00;;;;;;5031559;28;20017;-63
2021/10/04 04:14:20;;;;;;;4.80;1.10;;;15.90;91.80;;;;;;5031414;28;20025;-60
2021/10/04 04:16:46;;;;;;;2.95;0.90;;;15.90;91.80;;;;;;5031708;28;20017;-63
2021/10/04 04:19:11;;;;;;;4.20;1.27;;;15.90;91.80;;;;;;5031390;28;20024;-62
2021/10/04 04:21:38;;;;;;;2.25;1.00;;;15.90;91.80;;;;;;5031456;28;20041;-62
2021/10/04 04:24:04;;;;;;;3.22;1.10;;;15.90;91.90;;;;;;5031571;28;20013;-62
2021/10/04 04:26:29;;;;;;;2.80;0.90;;;15.90;91.90;;;;;;5031309;28;20031;-63
2021/10/04 04:28:55;;;;;;;4.72;1.20;;;15.90;91.50;;;;;;5029889;28;20067;-63
2021/10/04 04:31:20;;;;;;;4.07;0.90;;;15.90;91.50;;;;;;5031575;28;20025;-63
2021/10/04 04:33:46;;;;;;;2.83;1.02;;;15.90;91.40;;;;;;5031375;28;20024;-63
2021/10/04 04:36:11;;;;;;;3.58;1.02;;;15.90;91.40;;;;;;5030005;28;20021;-63
2021/10/04 04:38:38;;;;;;;3.15;1.00;;;15.90;91.40;;;;;;5029890;28;20014;-63
2021/10/04 04:41:03;;;;;;;2.72;0.85;;;15.90;91.30;;;;;;5031248;28;20033;-63
2021/10/04 04:43:29;;;;;;;4.40;0.90;;;15.90;91.40;;;;;;5024829;28;20497;-63
2021/10/04 04:45:54;;;;;;;1.85;0.90;;;15.90;91.30;;;;;;5020782;28;20131;-64
2021/10/04 04:48:20;;;;;;;5.20;1.00;;;15.90;91.20;;;;;;5016474;28;20392;-63
2021/10/04 04:50:45;;;;;;;3.33;1.00;;;15.90;91.10;;;;;;5015572;28;20387;-63
2021/10/04 04:53:11;;;;;;;3.25;1.15;;;15.90;91.20;;;;;;5012675;28;20115;-62
2021/10/04 04:55:36;;;;;;;4.38;1.13;;;15.90;91.20;;;;;;5016889;28;20895;-63
2021/10/04 04:58:02;;;;;;;2.38;0.80;;;15.90;91.00;;;;;;5014074;28;20029;-63
2021/10/04 05:00:28;;;;;;;5.20;1.27;;;15.90;90.90;;;;;;5015074;28;20022;-63
2021/10/04 05:02:53;;;;;;;2.72;0.88;;;15.90;91.20;;;;;;5017144;28;20021;-63
2021/10/04 05:05:20;;;;;;;3.97;1.00;;;15.90;90.90;;;;;;5011240;28;20037;-62
2021/10/04 05:07:46;;;;;;;3.30;0.82;;;15.90;90.70;;;;;;5004406;28;20092;-63
2021/10/04 05:10:12;;;;;;;2.85;1.20;;;15.90;90.70;;;;;;5009652;28;20386;-62
2021/10/04 05:12:38;;;;;;;1.88;0.90;;;15.90;90.60;;;;;;5024498;28;20104;-63
2021/10/04 05:15:04;;;;;;;3.45;0.98;;;15.80;90.30;;;;;;5022712;28;20066;-62
2021/10/04 05:17:29;;;;;;;2.58;0.85;;;15.90;90.40;;;;;;5022439;28;20025;-62
2021/10/04 05:19:55;;;;;;;4.57;1.38;;;15.80;90.50;;;;;;5023673;28;20512;-61
2021/10/04 05:22:21;;;;;;;4.80;0.90;;;15.80;90.40;;;;;;5019308;28;20053;-61
2021/10/04 05:24:46;;;;;;;3.85;0.85;;;15.90;90.50;;;;;;5002871;28;20030;-62
2021/10/04 05:27:12;;;;;;;4.97;0.95;;;15.90;90.40;;;;;;5003774;28;20604;-62
2021/10/04 05:29:38;;;;;;;6.78;1.05;;;15.90;90.40;;;;;;5004350;28;20033;-62
2021/10/04 05:32:05;;;;;;;3.75;1.10;;;15.90;90.50;;;;;;5004387;28;20026;-62
2021/10/04 05:34:31;;;;;;;4.50;0.98;;;15.90;90.60;;;;;;5003681;28;20184;-61
2021/10/04 05:36:56;;;;;;;4.93;1.00;;;15.90;90.20;;;;;;5007269;28;20651;-61
2021/10/04 05:39:22;;;;;;;4.18;0.90;;;15.90;90.20;;;;;;5024272;28;20029;-62
2021/10/04 05:41:48;;;;;;;8.00;1.30;;;15.90;90.30;;;;;;5024729;28;20029;-62
2021/10/04 05:44:13;;;;;;;4.13;0.90;;;15.90;90.50;;;;;;5024656;28;20021;-61
2021/10/04 05:46:39;;;;;;;3.75;0.95;;;15.90;90.20;;;;;;5024505;28;20100;-61
2021/10/04 05:49:04;;;;;;;4.18;0.90;;;15.80;90.30;;;;;;5023601;28;20033;-61
2021/10/04 05:51:30;;;;;;;6.30;1.58;;;15.80;90.30;;;;;;5024439;28;20037;-62
2021/10/04 05:53:55;;;;;;;3.55;0.93;;;15.90;90.30;;;;;;5024331;28;20036;-61
2021/10/04 05:56:21;;;;;;;3.30;0.82;;;15.80;90.20;;;;;;5014568;28;20026;-61
2021/10/04 05:58:46;;;;;;;4.20;1.00;;;15.80;90.20;;;;;;5012765;28;20037;-62
2021/10/04 06:01:12;;;;;;;2.40;0.90;;;15.90;90.20;;;;;;5012918;28;20169;-62
2021/10/04 06:03:37;;;;;;;3.67;0.85;;;15.80;90.10;;;;;;5009005;28;20037;-61
2021/10/04 06:06:03;;;;;;;3.90;1.00;;;15.80;90.30;;;;;;5003428;28;20030;-61
2021/10/04 06:08:28;;;;;;;4.88;1.30;;;15.80;90.10;;;;;;5003998;28;20184;-61
2021/10/04 06:10:54;;;;;;;3.53;1.00;;;15.80;90.10;;;;;;5004751;28;20444;-61
2021/10/04 06:13:19;;;;;;;4.28;1.00;;;15.80;90.10;;;;;;5004134;28;20038;-60
2021/10/04 06:15:45;;;;;;;4.32;0.82;;;15.80;90.00;;;;;;5007729;28;20409;-61
2021/10/04 06:18:12;;;;;;;2.97;0.90;;;15.80;89.90;;;;;;5008098;28;20026;-59
2021/10/04 06:20:45;;;;;;;3.13;0.88;;;15.80;89.80;;;;;;5006809;28;20014;-62
2021/10/04 06:23:11;;;;;;;3.13;0.70;;;15.80;89.80;;;;;;5007501;28;20029;-62
2021/10/04 06:25:40;;;;;;;3.53;0.88;;;15.80;89.70;;;;;;5007805;28;20109;-62
2021/10/04 06:28:06;;;;;;;13.00;1.58;;;15.80;89.80;;;;;;5007356;28;20026;-62
2021/10/04 06:30:32;;;;;;;28.42;2.58;;;15.80;89.40;;;;;;5007575;28;20037;-62
2021/10/04 06:32:57;;;;;;;7.32;1.20;;;15.90;89.40;;;;;;5007692;28;20108;-61
2021/10/04 06:35:23;;;;;;;25.95;2.45;;;15.80;89.40;;;;;;5007390;28;20160;-62
2021/10/04 06:37:49;;;;;;;16.17;1.70;;;15.80;89.90;;;;;;5007367;28;20107;-61
2021/10/04 06:40:16;;;;;;;10.82;1.20;;;15.80;89.70;;;;;;5006275;28;20026;-62
2021/10/04 06:42:43;;;;;;;14.75;1.30;;;15.80;89.60;;;;;;5007114;28;20026;-61
2021/10/04 06:45:09;;;;;;;24.38;2.67;;;15.80;89.70;;;;;;5011446;28;20038;-62
2021/10/04 06:47:34;;;;;;;18.52;1.75;;;15.80;89.20;;;;;;5015691;28;20026;-62
2021/10/04 06:50:00;;;;;;;16.58;1.70;;;15.80;89.30;;;;;;5016798;28;20026;-63
2021/10/04 06:52:26;;;;;;;8.85;1.40;;;15.80;89.30;;;;;;5016835;28;20052;-62
2021/10/04 06:54:51;;;;;;;8.10;1.23;;;15.80;89.90;;;;;;5018791;28;20044;-62
2021/10/04 06:57:17;;;;;;;16.33;1.48;;;15.80;89.50;;;;;;5012406;28;20041;-63
2021/10/04 06:59:42;;;;;;;14.15;1.65;;;15.80;89.40;;;;;;5027042;28;20025;-63
2021/10/04 07:02:08;;;;;;;1999.90;205.55;;;15.90;89.60;;;;;;5027166;28;20029;-62
2021/10/04 07:04:34;;;;;;;1999.90;335.88;;;15.90;89.60;;;;;;5026687;28;20540;-62
2021/10/04 07:06:59;;;;;;;1999.90;159.43;;;15.90;87.60;;;;;;5018347;28;20140;-62
2021/10/04 07:09:25;;;;;;;1999.90;212.20;;;15.70;85.80;;;;;;5007162;28;20501;-62
2021/10/04 07:11:51;;;;;;;1999.90;220.00;;;15.50;85.10;;;;;;5007194;28;20026;-63
2021/10/04 07:14:18;;;;;;;1981.75;150.15;;;15.30;84.40;;;;;;5006616;28;20032;-62
2021/10/04 07:16:43;;;;;;;1999.90;298.38;;;15.30;86.70;;;;;;5007436;28;20547;-62
2021/10/04 07:19:09;;;;;;;1999.90;156.98;;;15.30;84.80;;;;;;5006347;28;20033;-61
2021/10/04 07:21:34;;;;;;;1999.90;220.57;;;15.10;84.90;;;;;;5025383;28;20038;-62
2021/10/04 07:24:00;;;;;;;500.15;36.40;;;15.10;86.20;;;;;;5026401;28;20567;-61
2021/10/04 07:26:27;;;;;;;410.75;26.23;;;15.20;86.50;;;;;;5026352;28;20061;-62
2021/10/04 07:28:53;;;;;;;375.52;23.48;;;15.00;84.10;;;;;;5026269;28;20029;-62
2021/10/04 07:31:19;;;;;;;416.70;28.60;;;14.90;83.30;;;;;;5026636;28;20034;-61
2021/10/04 07:33:45;;;;;;;149.65;11.02;;;14.80;84.10;;;;;;5025868;28;20180;-62
2021/10/04 07:36:10;;;;;;;280.65;19.67;;;14.80;83.60;;;;;;5026212;28;20090;-60
2021/10/04 07:38:37;;;;;;;143.30;9.60;;;14.70;84.00;;;;;;5023009;28;20204;-60
2021/10/04 07:41:05;;;;;;;75.88;6.07;;;14.60;83.70;;;;;;5016569;28;20065;-61
2021/10/04 07:43:31;;;;;;;46.75;4.25;;;14.60;85.00;;;;;;5005881;28;20022;-61
2021/10/04 07:45:57;;;;;;;98.65;8.35;;;14.70;84.50;;;;;;5005248;28;20036;-62
2021/10/04 07:48:23;;;;;;;36.25;3.70;;;14.80;86.40;;;;;;5013582;28;20041;-62
2021/10/04 07:50:49;;;;;;;24.35;2.50;;;14.90;84.00;;;;;;5023459;28;20037;-60
2021/10/04 07:53:15;;;;;;;27.00;2.75;;;14.80;84.40;;;;;;5019865;28;20030;-61
2021/10/04 07:55:40;;;;;;;24.50;2.95;;;14.80;84.80;;;;;;5014228;28;20513;-62
2021/10/04 07:58:06;;;;;;;17.92;2.25;;;14.80;84.90;;;;;;5044853;28;20804;-61
2021/10/04 08:00:33;;;;;;;24.58;2.50;;;14.80;85.20;;;;;;5045820;28;20035;-60
2021/10/04 08:02:58;;;;;;;18.58;2.20;;;14.80;85.50;;;;;;5045545;28;20027;-62
2021/10/04 08:05:24;;;;;;;14.80;2.00;;;14.80;87.20;;;;;;5039519;28;20029;-61
2021/10/04 08:07:49;;;;;;;15.13;2.08;;;14.80;84.90;;;;;;5022126;28;20429;-62
2021/10/04 08:10:16;;;;;;;19.55;2.20;;;14.80;85.60;;;;;;5014441;28;20029;-61
2021/10/04 08:12:42;;;;;;;17.92;2.03;;;14.90;85.70;;;;;;5013429;28;20029;-61
2021/10/04 08:15:08;;;;;;;12.93;1.70;;;14.90;85.80;;;;;;5025027;28;20397;-61
2021/10/04 08:17:34;;;;;;;8.98;1.90;;;14.90;86.00;;;;;;5003583;28;20105;-61
2021/10/04 08:20:00;;;;;;;11.13;1.33;;;14.90;85.50;;;;;;5005053;28;20061;-61
2021/10/04 08:22:27;;;;;;;11.10;1.60;;;14.90;86.00;;;;;;5005769;28;20481;-61
2021/10/04 08:24:53;;;;;;;7.82;1.40;;;14.90;85.60;;;;;;5004947;28;20467;-60
2021/10/04 08:27:19;;;;;;;8.02;1.55;;;14.90;85.80;;;;;;5004953;28;20046;-61
2021/10/04 08:29:46;;;;;;;8.30;1.48;;;14.90;86.50;;;;;;5005262;28;20382;-61
2021/10/04 08:32:12;;;;;;;41.53;4.05;;;15.00;86.20;;;;;;5005332;28;20421;-60
2021/10/04 08:34:38;;;;;;;15.95;1.80;;;15.00;86.70;;;;;;5005287;28;20299;-61
2021/10/04 08:37:03;;;;;;;9.27;1.30;;;15.00;86.80;;;;;;5003668;28;20508;-61
2021/10/04 08:39:29;;;;;;;8.77;1.58;;;15.10;86.40;;;;;;5004740;28;20030;-61
2021/10/04 08:41:55;;;;;;;6.82;1.63;;;15.00;86.90;;;;;;5004310;28;20036;-61
2021/10/04 08:44:21;;;;;;;6.50;1.33;;;15.10;87.10;;;;;;5005470;28;20397;-61
2021/10/04 08:46:47;;;;;;;6.75;1.30;;;15.10;87.30;;;;;;5005045;28;20131;-61
2021/10/04 08:49:14;;;;;;;5.35;1.13;;;15.10;87.00;;;;;;5005217;28;20034;-61
2021/10/04 08:51:41;;;;;;;7.90;1.20;;;15.10;86.30;;;;;;5005036;28;20040;-61
2021/10/04 08:54:07;;;;;;;5.57;1.48;;;15.10;86.30;;;;;;5004802;28;20482;-61
2021/10/04 08:56:34;;;;;;;5.78;1.30;;;15.10;87.50;;;;;;5016429;28;20116;-61
2021/10/04 08:59:00;;;;;;;5.57;1.20;;;15.10;86.50;;;;;;5023074;28;20156;-61
2021/10/04 09:01:25;;;;;;;8.32;1.55;;;15.10;87.70;;;;;;5024572;28;20506;-61
2021/10/04 09:03:55;;;;;;;4.38;1.23;;;15.10;87.30;;;;;;5023522;28;20029;-61
2021/10/04 09:06:32;;;;;;;2.60;0.93;;;15.10;86.90;;;;;;5024758;28;20165;-61
2021/10/04 09:12:21;;;;;;;5.13;1.00;;;15.10;87.20;;;;;;5017841;28;20398;-61
2021/10/04 09:14:47;;;;;;;5.30;1.13;;;15.10;87.40;;;;;;5023851;28;20385;-61
2021/10/04 09:17:14;;;;;;;5.75;1.15;;;15.20;87.30;;;;;;5024048;28;20026;-60
2021/10/04 09:19:42;;;;;;;4.15;1.30;;;15.10;87.00;;;;;;5023300;28;20367;-61
2021/10/04 09:22:12;;;;;;;2.95;0.93;;;15.20;87.30;;;;;;5024289;28;20030;-61
2021/10/04 09:24:40;;;;;;;4.75;1.40;;;15.20;87.70;;;;;;5024486;28;20100;-61
2021/10/04 09:27:34;;;;;;;3.60;1.05;;;15.20;87.40;;;;;;5024434;28;20057;-61
2021/10/04 09:30:06;;;;;;;4.45;1.20;;;15.20;87.70;;;;;;5024405;28;20056;-61
2021/10/04 09:32:39;;;;;;;4.70;1.10;;;15.20;87.70;;;;;;5024442;28;20026;-61
2021/10/04 09:35:23;;;;;;;2.80;0.90;;;15.30;87.70;;;;;;5024526;28;20045;-61
2021/10/04 09:38:16;;;;;;;4.43;1.00;;;15.30;87.90;;;;;;5024336;28;20030;-61
2021/10/04 09:40:44;;;;;;;5.22;1.20;;;15.30;87.50;;;;;;5019009;28;20041;-61
2021/10/04 09:43:26;;;;;;;5.53;1.00;;;15.40;87.30;;;;;;5024478;28;20017;-62
2021/10/04 09:46:05;;;;;;;3.30;0.90;;;15.40;87.10;;;;;;5022956;28;20033;-62
2021/10/04 09:48:31;;;;;;;3.60;1.10;;;15.30;87.00;;;;;;5025594;28;20465;-61
2021/10/04 09:51:11;;;;;;;2.40;0.85;;;15.30;87.40;;;;;;5028504;28;20033;-60
2021/10/04 09:53:36;;;;;;;6.38;1.10;;;15.30;87.40;;;;;;5028047;28;20033;-62
2021/10/04 09:56:02;;;;;;;2.58;0.90;;;15.30;87.50;;;;;;5028019;28;20035;-62
2021/10/04 09:58:32;;;;;;;5.20;1.10;;;15.40;87.70;;;;;;5027655;28;20021;-61
2021/10/04 10:01:00;;;;;;;4.20;0.90;;;15.40;87.20;;;;;;5027881;28;20021;-61
2021/10/04 10:03:39;;;;;;;3.95;1.00;;;15.40;87.50;;;;;;5028001;28;20638;-61
2021/10/04 10:06:05;;;;;;;4.00;0.80;;;15.40;87.60;;;;;;5027833;28;20083;-61
2021/10/04 10:08:31;;;;;;;3.83;0.93;;;15.50;88.10;;;;;;5027417;28;20104;-61
2021/10/04 10:11:00;;;;;;;5.45;1.50;;;15.40;87.70;;;;;;5027582;28;20489;-60
2021/10/04 10:13:28;;;;;;;4.13;0.90;;;15.40;87.80;;;;;;5027717;28;20265;-60
2021/10/04 10:16:13;;;;;;;2.78;0.90;;;15.40;88.00;;;;;;5027592;28;20120;-61
2021/10/04 10:19:07;;;;;;;3.47;0.93;;;15.40;88.10;;;;;;5027211;28;20036;-62
2021/10/04 10:21:37;;;;;;;4.78;0.95;;;15.40;88.00;;;;;;5027334;28;20045;-61
2021/10/04 10:24:05;;;;;;;3.35;1.20;;;15.40;88.90;;;;;;5027357;28;20034;-61
2021/10/04 10:26:43;;;;;;;2.55;0.80;;;15.40;88.50;;;;;;5027544;28;20487;-61
2021/10/04 10:29:21;;;;;;;4.63;0.88;;;15.40;88.20;;;;;;5027249;28;20234;-61
2021/10/04 10:31:53;;;;;;;3.13;1.08;;;15.40;88.40;;;;;;5027079;28;20492;-61
2021/10/04 10:34:31;;;;;;;2.83;0.90;;;15.50;88.60;;;;;;5026020;28;20068;-61
2021/10/04 10:37:01;;;;;;;4.00;0.90;;;15.50;88.20;;;;;;5027550;28;20029;-61
2021/10/04 10:39:31;;;;;;;3.75;1.08;;;15.50;88.60;;;;;;5027055;28;20452;-61
2021/10/04 10:42:27;;;;;;;3.78;0.93;;;15.50;88.70;;;;;;5027414;28;20045;-60
2021/10/04 10:44:55;;;;;;;7.78;1.20;;;15.50;89.10;;;;;;5027189;28;20024;-61
2021/10/04 10:47:33;;;;;;;2.35;0.80;;;15.60;88.90;;;;;;5027048;28;20036;-60
2021/10/04 10:50:00;;;;;;;3.15;0.90;;;15.60;89.10;;;;;;5026927;28;20038;-61
2021/10/04 10:52:28;;;;;;;5.93;0.93;;;15.60;89.00;;;;;;5027052;28;20089;-61
2021/10/04 10:54:55;;;;;;;3.88;1.20;;;15.60;88.70;;;;;;5026946;28;20022;-61
2021/10/04 10:57:50;;;;;;;3.20;0.95;;;15.60;89.00;;;;;;5007794;28;20029;-61
2021/10/04 11:00:18;;;;;;;4.82;0.80;;;15.60;88.90;;;;;;5005903;28;20018;-61
2021/10/04 11:02:56;;;;;;;9.02;1.38;;;15.60;88.70;;;;;;5006718;28;20074;-60
2021/10/04 11:05:40;;;;;;;3.53;0.98;;;15.70;88.60;;;;;;5007439;28;20032;-62
2021/10/04 11:08:17;;;;;;;5.65;1.08;;;15.70;88.50;;;;;;5013598;28;20758;-60
2021/10/04 11:10:49;;;;;;;3.65;1.00;;;15.70;88.40;;;;;;5023767;28;20559;-61
2021/10/04 11:13:29;;;;;;;3.30;0.82;;;15.70;88.50;;;;;;5025494;28;20083;-60
2021/10/04 11:15:57;;;;;;;5.55;0.90;;;15.70;88.60;;;;;;5025842;28;20037;-60
2021/10/04 11:18:34;;;;;;;4.50;0.80;;;15.70;88.20;;;;;;5026172;28;20037;-61
2021/10/04 11:21:05;;;;;;;5.25;0.93;;;15.70;88.50;;;;;;5024856;28;20029;-61
2021/10/04 11:23:31;;;;;;;5.75;1.05;;;15.70;88.10;;;;;;5021121;28;20374;-61
2021/10/04 11:25:57;;;;;;;5.03;0.90;;;15.80;88.00;;;;;;5016672;28;20036;-61
2021/10/04 11:28:39;;;;;;;2.17;0.80;;;15.80;87.50;;;;;;5015452;28;20338;-62
2021/10/04 11:31:04;;;;;;;3.50;0.82;;;15.80;87.70;;;;;;5018038;28;20519;-61
2021/10/04 11:33:33;;;;;;;3.22;0.80;;;15.80;87.50;;;;;;5023223;28;20033;-62
2021/10/04 11:36:08;;;;;;;3.92;1.17;;;15.80;87.50;;;;;;5025076;28;20492;-62
2021/10/04 11:38:38;;;;;;;8.07;1.05;;;15.80;87.80;;;;;;5025114;28;20061;-62
2021/10/04 11:41:04;;;;;;;16.77;1.52;;;15.80;87.70;;;;;;5026240;28;20558;-62
2021/10/04 11:43:34;;;;;;;4.68;0.93;;;15.80;87.80;;;;;;5025999;28;20037;-62
2021/10/04 11:46:16;;;;;;;4.80;1.02;;;15.80;87.40;;;;;;5025985;28;20108;-62
2021/10/04 11:48:43;;;;;;;16.20;2.10;;;15.80;87.20;;;;;;5019916;28;20025;-62
2021/10/04 11:51:11;;;;;;;14.98;1.30;;;15.80;87.00;;;;;;5009603;28;20026;-61
2021/10/04 11:53:41;;;;;;;14.10;1.17;;;15.80;87.20;;;;;;5005758;28;20033;-61
2021/10/04 11:56:10;;;;;;;10.25;1.52;;;15.90;86.70;;;;;;5026467;28;20488;-62
2021/10/04 11:58:45;;;;;;;5.97;1.02;;;15.90;86.70;;;;;;5008651;28;20072;-62
2021/10/04 12:01:11;;;;;;;6.57;1.15;;;15.90;86.80;;;;;;5004279;28;20499;-62
2021/10/04 12:03:39;;;;;;;14.98;1.40;;;15.90;86.30;;;;;;5003313;28;20033;-62
2021/10/04 12:06:06;;;;;;;7.60;1.05;;;15.90;86.90;;;;;;5004937;28;20437;-62
2021/10/04 12:08:39;;;;;;;4.32;0.98;;;15.90;86.40;;;;;;5004898;28;20025;-61
2021/10/04 12:11:08;;;;;;;6.93;0.98;;;15.90;86.60;;;;;;5004389;28;20113;-61
2021/10/04 12:13:39;;;;;;;6.25;1.00;;;15.90;86.10;;;;;;5005083;28;20269;-61
2021/10/04 12:16:07;;;;;;;4.97;1.20;;;15.90;86.50;;;;;;5003491;28;20037;-62
2021/10/04 12:18:39;;;;;;;4.07;0.82;;;15.90;86.00;;;;;;5004859;28;20040;-62
2021/10/04 12:21:40;;;;;;;4.47;0.90;;;15.90;86.10;;;;;;5005106;28;20073;-68
2021/10/04 12:24:27;;;;;;;27.38;2.65;;;15.90;86.30;;;;;;5004802;28;20066;-61
2021/10/04 12:26:56;;;;;;;8.38;0.95;;;16.00;86.20;;;;;;5004740;28;20095;-61
2021/10/04 12:29:47;;;;;;;7.88;1.20;;;16.00;85.90;;;;;;5004279;28;20021;-61
2021/10/04 12:32:31;;;;;;;6.90;1.10;;;16.00;85.80;;;;;;5004850;28;20033;-61
2021/10/04 12:35:25;;;;;;;5.50;0.98;;;16.00;85.20;;;;;;5004664;28;20029;-61
2021/10/04 12:37:57;;;;;;;5.47;1.00;;;16.00;84.90;;;;;;4999376;28;20108;-61
2021/10/04 12:40:43;;;;;;;4.90;1.13;;;16.00;84.30;;;;;;5004875;28;20022;-61
2021/10/04 12:43:21;;;;;;;5.65;0.75;;;16.10;84.20;;;;;;5004701;28;20520;-61
2021/10/04 12:46:07;;;;;;;7.88;1.10;;;16.00;84.50;;;;;;5004881;28;20029;-61
2021/10/04 12:48:38;;;;;;;8.23;1.13;;;16.00;84.70;;;;;;5004583;28;20088;-61
2021/10/04 12:51:05;;;;;;;4.95;0.80;;;16.00;84.70;;;;;;5004083;28;20057;-61